createdAt,value
2022-10-01T00:00:57.271Z,5.82
2022-10-01T00:03:25.239Z,8.02
2022-10-01T00:06:11.472Z,7.68
2022-10-01T00:08:40.221Z,6.70
2022-10-01T00:11:08.543Z,8.02
2022-10-01T00:13:36.014Z,9.05
2022-10-01T00:16:08.800Z,8.18
2022-10-01T00:18:43.366Z,6.97
2022-10-01T00:21:16.909Z,6.78
2022-10-01T00:23:43.479Z,7.38
2022-10-01T00:26:15.418Z,7.78
2022-10-01T00:28:43.361Z,6.40
2022-10-01T00:31:10.427Z,7.53
2022-10-01T00:33:37.422Z,5.78
2022-10-01T00:36:06.309Z,7.20
2022-10-01T00:38:33.997Z,7.22
2022-10-01T00:41:01.122Z,4.90
2022-10-01T00:43:34.521Z,3.72
2022-10-01T00:46:14.098Z,5.25
2022-10-01T00:48:54.534Z,3.50
2022-10-01T00:51:21.127Z,3.28
2022-10-01T00:53:47.770Z,2.72
2022-10-01T00:56:14.373Z,2.88
2022-10-01T00:58:42.021Z,5.18
2022-10-01T01:01:08.549Z,3.80
2022-10-01T01:03:34.998Z,3.47
2022-10-01T01:06:01.471Z,3.75
2022-10-01T01:08:29.215Z,2.85
2022-10-01T01:11:23.142Z,4.32
2022-10-01T01:14:02.617Z,3.92
2022-10-01T01:16:39.233Z,3.85
2022-10-01T01:19:27.616Z,2.80
2022-10-01T01:22:00.317Z,2.03
2022-10-01T01:24:33.884Z,2.88
2022-10-01T01:27:25.252Z,2.95
2022-10-01T01:30:09.065Z,2.08
2022-10-01T01:32:54.085Z,1.35
2022-10-01T01:35:31.630Z,1.90
2022-10-01T01:38:03.151Z,2.17
2022-10-01T01:40:32.437Z,1.30
2022-10-01T01:43:05.578Z,1.63
2022-10-01T01:45:35.368Z,1.17
2022-10-01T01:48:03.707Z,2.13
2022-10-01T01:53:00.825Z,2.78
2022-10-01T01:55:30.946Z,2.80
2022-10-01T01:57:57.799Z,2.75
2022-10-01T02:00:24.295Z,2.80
2022-10-01T02:02:53.617Z,2.35
2022-10-01T02:05:28.558Z,2.88
2022-10-01T02:08:31.274Z,3.25
2022-10-01T02:11:21.667Z,3.10
2022-10-01T02:14:06.531Z,2.47
2022-10-01T02:17:20.370Z,4.07
2022-10-01T02:19:57.074Z,2.85
2022-10-01T02:22:38.250Z,2.83
2022-10-01T02:25:06.911Z,3.33
2022-10-01T02:27:56.148Z,2.90
2022-10-01T02:30:22.881Z,2.65
2022-10-01T02:32:54.158Z,3.30
2022-10-01T02:35:22.101Z,2.45
2022-10-01T02:37:51.828Z,2.92
2022-10-01T02:40:26.141Z,2.35
2022-10-01T02:42:57.424Z,3.13
2022-10-01T02:45:26.370Z,3.08
2022-10-01T02:48:06.310Z,1.92
2022-10-01T02:50:42.111Z,1.48
2022-10-01T02:53:37.768Z,2.85
2022-10-01T02:56:06.455Z,2.33
2022-10-01T02:58:33.027Z,3.63
2022-10-01T03:00:59.625Z,3.15
2022-10-01T03:03:27.371Z,3.45
2022-10-01T03:05:53.887Z,2.22
2022-10-01T03:08:20.345Z,2.92
2022-10-01T03:10:47.084Z,3.40
2022-10-01T03:13:13.875Z,1.90
2022-10-01T03:15:40.432Z,3.88
2022-10-01T03:18:07.137Z,4.25
2022-10-01T03:20:33.745Z,3.58
2022-10-01T03:23:00.333Z,2.42
2022-10-01T03:25:26.744Z,4.32
2022-10-01T03:27:53.266Z,3.33
2022-10-01T03:30:22.812Z,4.32
2022-10-01T03:32:52.531Z,4.38
2022-10-01T03:35:23.180Z,3.67
2022-10-01T03:37:53.072Z,6.15
2022-10-01T03:40:22.525Z,5.65
2022-10-01T03:42:50.039Z,5.80
2022-10-01T03:45:16.550Z,5.18
2022-10-01T03:47:42.979Z,3.53
2022-10-01T03:50:09.464Z,4.15
2022-10-01T03:52:36.372Z,5.57
2022-10-01T03:55:02.968Z,3.28
2022-10-01T03:57:29.445Z,4.90
2022-10-01T03:59:56.147Z,5.95
2022-10-01T04:02:22.759Z,4.93
2022-10-01T04:04:52.374Z,6.13
2022-10-01T04:07:21.076Z,5.85
2022-10-01T04:09:47.654Z,3.83
2022-10-01T04:12:14.257Z,4.30
2022-10-01T04:14:40.665Z,5.85
2022-10-01T04:17:07.230Z,7.07
2022-10-01T04:19:33.639Z,6.50
2022-10-01T04:22:00.103Z,6.00
2022-10-01T04:24:26.687Z,5.63
2022-10-01T04:26:53.285Z,6.30
2022-10-01T04:29:22.594Z,6.10
2022-10-01T04:31:56.562Z,6.75
2022-10-01T04:34:42.938Z,4.75
2022-10-01T04:37:09.533Z,6.13
2022-10-01T04:39:35.965Z,7.18
2022-10-01T04:42:02.560Z,6.70
2022-10-01T04:44:30.081Z,6.50
2022-10-01T04:46:56.940Z,6.38
2022-10-01T04:49:23.604Z,6.63
2022-10-01T04:51:50.165Z,5.63
2022-10-01T04:54:16.741Z,6.72
2022-10-01T04:56:43.107Z,6.43
2022-10-01T04:59:09.815Z,6.75
2022-10-01T05:01:36.893Z,7.30
2022-10-01T05:04:03.733Z,7.25
2022-10-01T05:06:30.261Z,6.13
2022-10-01T05:08:56.811Z,7.05
2022-10-01T05:11:23.384Z,6.05
2022-10-01T05:13:52.973Z,7.38
2022-10-01T05:16:22.745Z,5.78
2022-10-01T05:18:50.364Z,5.82
2022-10-01T05:21:16.834Z,5.80
2022-10-01T05:23:43.196Z,5.45
2022-10-01T05:26:09.798Z,5.82
2022-10-01T05:28:36.636Z,5.45
2022-10-01T05:31:03.929Z,5.18
2022-10-01T05:33:31.134Z,5.80
2022-10-01T05:35:58.021Z,4.45
2022-10-01T05:38:24.970Z,5.13
2022-10-01T05:40:51.532Z,6.65
2022-10-01T05:43:19.111Z,5.55
2022-10-01T05:45:45.637Z,5.55
2022-10-01T05:48:12.775Z,5.05
2022-10-01T05:50:40.342Z,5.85
2022-10-01T05:53:08.546Z,5.95
2022-10-01T06:00:31.071Z,4.45
2022-10-01T06:02:58.969Z,4.50
2022-10-01T06:05:26.397Z,5.03
2022-10-01T06:07:53.546Z,4.97
2022-10-01T06:10:21.601Z,5.25
2022-10-01T06:12:48.798Z,5.60
2022-10-01T06:15:16.240Z,5.38
2022-10-01T06:17:45.785Z,5.35
2022-10-01T06:20:14.850Z,5.13
2022-10-01T06:22:43.001Z,5.03
2022-10-01T06:25:15.589Z,6.10
2022-10-01T06:27:42.021Z,4.47
2022-10-01T06:30:09.039Z,3.80
2022-10-01T06:32:35.689Z,4.00
2022-10-01T06:35:03.384Z,3.97
2022-10-01T06:37:29.911Z,3.15
2022-10-01T06:39:56.442Z,2.53
2022-10-01T06:42:22.864Z,3.67
2022-10-01T06:44:50.645Z,3.90
2022-10-01T06:47:17.124Z,3.67
2022-10-01T06:49:47.325Z,3.13
2022-10-01T06:52:32.974Z,3.55
2022-10-01T06:55:01.278Z,2.33
2022-10-01T06:57:29.190Z,2.33
2022-10-01T06:59:56.010Z,2.90
2022-10-01T07:02:28.019Z,2.40
2022-10-01T07:05:01.127Z,1.80
2022-10-01T07:07:31.034Z,1.80
2022-10-01T07:10:10.548Z,1.75
2022-10-01T07:12:37.840Z,2.00
2022-10-01T07:15:06.314Z,1.30
2022-10-01T07:17:35.934Z,1.02
2022-10-01T07:20:02.948Z,2.03
2022-10-01T07:22:29.465Z,3.60
2022-10-01T07:24:56.010Z,1.88
2022-10-01T07:27:22.715Z,2.08
2022-10-01T07:29:49.942Z,1.88
2022-10-01T07:32:16.683Z,1.77
2022-10-01T07:34:44.074Z,1.50
2022-10-01T07:37:11.257Z,1.52
2022-10-01T07:39:37.942Z,1.95
2022-10-01T07:42:04.890Z,1.80
2022-10-01T07:44:31.397Z,2.17
2022-10-01T07:46:58.107Z,1.95
2022-10-01T07:49:25.256Z,2.30
2022-10-01T07:51:53.256Z,2.65
2022-10-01T07:54:22.535Z,1.90
2022-10-01T07:56:52.901Z,2.45
2022-10-01T07:59:34.892Z,2.13
2022-10-01T08:02:01.559Z,1.50
2022-10-01T08:04:46.785Z,1.80
2022-10-01T08:07:15.254Z,1.98
2022-10-01T08:09:41.746Z,2.35
2022-10-01T08:12:08.449Z,1.88
2022-10-01T08:14:35.549Z,2.10
2022-10-01T08:17:02.258Z,2.08
2022-10-01T08:19:29.354Z,1.67
2022-10-01T08:21:55.840Z,1.75
2022-10-01T08:24:22.303Z,1.67
2022-10-01T08:26:54.601Z,1.70
2022-10-01T08:32:32.882Z,1.98
2022-10-01T08:34:59.932Z,1.70
2022-10-01T08:37:27.855Z,2.13
2022-10-01T08:39:55.624Z,2.50
2022-10-01T08:42:34.146Z,2.05
2022-10-01T08:45:26.680Z,1.40
2022-10-01T08:48:12.446Z,1.38
2022-10-01T08:50:47.175Z,1.88
2022-10-01T08:53:48.012Z,1.60
2022-10-01T08:56:29.436Z,1.35
2022-10-01T08:59:04.254Z,2.00
2022-10-01T09:01:31.400Z,2.08
2022-10-01T09:03:59.434Z,1.75
2022-10-01T09:06:27.588Z,2.08
2022-10-01T09:12:07.599Z,1.20
2022-10-01T09:15:10.593Z,2.03
2022-10-01T09:18:07.529Z,2.45
2022-10-01T09:20:45.201Z,1.45
2022-10-01T09:23:31.674Z,1.67
2022-10-01T09:26:04.997Z,2.53
2022-10-01T09:28:34.790Z,2.00
2022-10-01T09:31:18.785Z,1.35
2022-10-01T09:34:12.408Z,1.38
2022-10-01T09:37:08.657Z,1.30
2022-10-01T09:39:44.702Z,2.22
2022-10-01T09:42:11.172Z,2.03
2022-10-01T09:44:37.873Z,1.63
2022-10-01T09:47:21.133Z,1.90
2022-10-01T09:49:49.836Z,1.38
2022-10-01T09:52:34.508Z,1.40
2022-10-01T09:55:19.870Z,1.60
2022-10-01T09:58:01.007Z,1.55
2022-10-01T10:00:27.820Z,1.40
2022-10-01T10:02:56.228Z,1.30
2022-10-01T10:05:28.353Z,1.65
2022-10-01T10:08:03.027Z,1.50
2022-10-01T10:10:39.345Z,1.30
2022-10-01T10:13:27.282Z,2.28
2022-10-01T10:15:59.743Z,1.38
2022-10-01T10:18:35.577Z,1.50
2022-10-01T10:21:07.988Z,1.20
2022-10-01T10:23:34.824Z,1.40
2022-10-01T10:26:07.299Z,1.70
2022-10-01T10:28:45.979Z,2.13
2022-10-01T10:31:19.965Z,1.25
2022-10-01T10:33:51.573Z,1.35
2022-10-01T10:36:21.096Z,1.40
2022-10-01T10:38:51.000Z,1.60
2022-10-01T10:41:25.899Z,1.98
2022-10-01T10:44:03.543Z,1.55
2022-10-01T10:46:35.392Z,1.50
2022-10-01T10:49:10.427Z,2.38
2022-10-01T10:51:44.948Z,1.38
2022-10-01T10:54:31.957Z,1.55
2022-10-01T10:57:02.116Z,1.40
2022-10-01T10:59:33.252Z,0.90
2022-10-01T11:02:01.921Z,1.42
2022-10-01T11:04:39.508Z,1.60
2022-10-01T11:07:06.287Z,1.40
2022-10-01T11:10:10.368Z,1.38
2022-10-01T11:13:09.160Z,1.25
2022-10-01T11:16:00.579Z,1.30
2022-10-01T11:18:47.316Z,1.58
2022-10-01T11:21:50.831Z,1.55
2022-10-01T11:24:41.270Z,2.08
2022-10-01T11:27:29.746Z,2.05
2022-10-01T11:30:09.579Z,1.58
2022-10-01T11:32:46.081Z,1.33
2022-10-01T11:35:42.617Z,1.27
2022-10-01T11:38:41.777Z,1.70
2022-10-01T11:41:23.629Z,1.17
2022-10-01T11:43:54.232Z,1.05
2022-10-01T11:46:35.096Z,1.42
2022-10-01T11:49:31.953Z,1.20
2022-10-01T11:52:21.979Z,2.28
2022-10-01T11:55:28.410Z,1.83
2022-10-01T11:58:19.744Z,1.13
2022-10-01T12:00:56.990Z,0.90
2022-10-01T12:03:28.673Z,1.08
2022-10-01T12:05:57.845Z,1.17
2022-10-01T12:08:32.879Z,1.05
2022-10-01T12:11:22.053Z,1.15
2022-10-01T12:13:56.949Z,1.63
2022-10-01T12:16:54.157Z,1.55
2022-10-01T12:19:42.712Z,1.30
2022-10-01T12:22:24.740Z,1.50
2022-10-01T12:24:52.592Z,1.52
2022-10-01T12:27:50.222Z,1.48
2022-10-01T12:30:25.061Z,1.35
2022-10-01T12:33:31.286Z,1.35
2022-10-01T12:35:57.718Z,1.63
2022-10-01T12:38:51.110Z,1.27
2022-10-01T12:42:08.198Z,0.85
2022-10-01T12:44:53.630Z,1.20
2022-10-01T12:47:35.305Z,1.20
2022-10-01T12:50:20.880Z,2.53
2022-10-01T12:53:03.540Z,1.58
2022-10-01T12:56:02.374Z,1.00
2022-10-01T12:58:46.915Z,1.13
2022-10-01T13:01:50.657Z,1.85
2022-10-01T13:04:55.379Z,1.30
2022-10-01T13:07:39.740Z,1.52
2022-10-01T13:10:35.025Z,1.25
2022-10-01T13:13:13.776Z,1.42
2022-10-01T13:15:44.657Z,1.83
2022-10-01T13:18:51.166Z,1.17
2022-10-01T13:21:26.827Z,0.95
2022-10-01T13:24:11.005Z,0.98
2022-10-01T13:26:50.552Z,3.00
2022-10-01T13:29:32.882Z,1.50
2022-10-01T13:32:02.027Z,1.48
2022-10-01T13:34:43.303Z,1.52
2022-10-01T13:37:19.170Z,1.60
2022-10-01T13:39:47.314Z,1.35
2022-10-01T13:42:42.129Z,1.33
2022-10-01T13:45:23.895Z,1.10
2022-10-01T13:48:16.672Z,1.63
2022-10-01T13:51:03.825Z,2.60
2022-10-01T13:53:38.084Z,1.27
2022-10-01T13:56:05.845Z,1.52
2022-10-01T13:58:34.334Z,1.33
2022-10-01T14:01:04.041Z,1.40
2022-10-01T14:03:45.232Z,1.80
2022-10-01T14:06:53.750Z,1.88
2022-10-01T14:09:28.261Z,1.30
2022-10-01T14:16:21.425Z,1.98
2022-10-01T14:18:50.068Z,1.75
2022-10-01T14:21:29.478Z,1.73
2022-10-01T14:24:14.253Z,1.63
2022-10-01T14:26:59.632Z,1.25
2022-10-01T14:29:50.061Z,1.38
2022-10-01T14:32:51.041Z,1.10
2022-10-01T14:35:23.456Z,1.45
2022-10-01T14:37:51.513Z,1.05
2022-10-01T14:43:00.415Z,1.27
2022-10-01T14:45:27.612Z,1.08
2022-10-01T14:48:06.030Z,1.40
2022-10-01T14:50:37.978Z,1.38
2022-10-01T14:53:06.356Z,0.88
2022-10-01T14:55:35.146Z,1.25
2022-10-01T14:58:11.123Z,1.45
2022-10-01T15:00:39.010Z,1.10
2022-10-01T15:03:15.077Z,1.75
2022-10-01T15:05:42.839Z,1.40
2022-10-01T15:08:17.834Z,1.52
2022-10-01T15:10:55.276Z,1.25
2022-10-01T15:13:29.731Z,1.67
2022-10-01T15:15:56.387Z,2.58
2022-10-01T15:18:24.208Z,2.20
2022-10-01T15:21:00.370Z,1.50
2022-10-01T15:23:29.412Z,1.52
2022-10-01T15:26:00.148Z,2.00
2022-10-01T15:28:31.747Z,2.28
2022-10-01T15:31:01.056Z,1.85
2022-10-01T15:33:30.957Z,1.13
2022-10-01T15:36:12.507Z,1.63
2022-10-01T15:38:42.167Z,1.33
2022-10-01T15:41:31.513Z,1.20
2022-10-01T15:44:04.625Z,1.23
2022-10-01T15:46:34.886Z,0.85
2022-10-01T15:49:12.409Z,2.10
2022-10-01T15:52:07.050Z,1.35
2022-10-01T15:54:34.354Z,3.55
2022-10-01T15:57:02.763Z,1.10
2022-10-01T15:59:30.392Z,2.35
2022-10-01T16:01:57.483Z,1.35
2022-10-01T16:04:24.124Z,2.00
2022-10-01T16:06:52.003Z,1.38
2022-10-01T16:11:56.747Z,1.33
2022-10-01T16:14:55.903Z,1.73
2022-10-01T16:17:32.427Z,1.67
2022-10-01T16:20:01.686Z,1.40
2022-10-01T16:22:32.293Z,1.75
2022-10-01T16:25:01.729Z,0.65
2022-10-01T16:27:30.311Z,2.10
2022-10-01T16:30:12.295Z,2.25
2022-10-01T16:32:38.753Z,1.42
2022-10-01T16:35:25.318Z,1.67
2022-10-01T16:37:55.065Z,1.25
2022-10-01T16:40:25.280Z,2.08
2022-10-01T16:42:52.833Z,1.08
2022-10-01T16:45:24.812Z,2.05
2022-10-01T16:47:59.010Z,1.60
2022-10-01T16:50:25.806Z,1.48
2022-10-01T16:52:55.982Z,1.45
2022-10-01T16:55:31.348Z,1.58
2022-10-01T16:57:58.642Z,3.08
2022-10-01T17:00:27.867Z,1.67
2022-10-01T17:02:56.223Z,2.00
2022-10-01T17:07:59.260Z,1.33
2022-10-01T17:10:25.823Z,1.15
2022-10-01T17:12:52.534Z,1.80
2022-10-01T17:15:23.302Z,1.60
2022-10-01T17:17:51.409Z,1.50
2022-10-01T17:22:44.723Z,1.23
2022-10-01T17:25:20.570Z,1.50
2022-10-01T17:27:50.980Z,1.10
2022-10-01T17:30:17.737Z,1.42
2022-10-01T17:32:44.821Z,1.02
2022-10-01T17:35:13.094Z,1.20
2022-10-01T17:37:40.581Z,1.10
2022-10-01T17:40:08.224Z,1.60
2022-10-01T17:42:35.681Z,1.48
2022-10-01T17:45:04.745Z,1.73
2022-10-01T17:47:31.641Z,1.42
2022-10-01T17:49:58.264Z,1.85
2022-10-01T17:52:24.759Z,2.28
2022-10-01T17:54:51.375Z,1.70
2022-10-01T17:57:20.441Z,1.20
2022-10-01T17:59:46.939Z,1.60
2022-10-01T18:02:39.929Z,1.50
2022-10-01T18:05:08.395Z,1.52
2022-10-01T18:07:39.025Z,1.77
2022-10-01T18:10:07.182Z,1.40
2022-10-01T18:12:33.870Z,1.50
2022-10-01T18:15:01.246Z,0.95
2022-10-01T18:17:28.270Z,1.27
2022-10-01T18:19:54.901Z,1.80
2022-10-01T18:22:22.369Z,1.40
2022-10-01T18:24:50.969Z,1.25
2022-10-01T18:27:17.576Z,1.30
2022-10-01T18:29:44.039Z,1.40
2022-10-01T18:32:25.790Z,1.42
2022-10-01T18:34:59.004Z,1.80
2022-10-01T18:37:40.150Z,1.40
2022-10-01T18:40:15.936Z,1.65
2022-10-01T18:42:54.428Z,1.65
2022-10-01T18:45:36.953Z,0.95
2022-10-01T18:48:54.569Z,1.60
2022-10-01T18:51:40.410Z,2.05
2022-10-01T18:54:36.841Z,2.28
2022-10-01T18:57:22.964Z,1.30
2022-10-01T19:00:03.873Z,1.55
2022-10-01T19:02:50.510Z,1.67
2022-10-01T19:05:38.586Z,1.48
2022-10-01T19:08:13.394Z,2.80
2022-10-01T19:10:55.122Z,2.20
2022-10-01T19:13:21.601Z,2.20
2022-10-01T19:15:54.097Z,2.13
2022-10-01T19:18:45.522Z,4.13
2022-10-01T19:21:32.555Z,2.05
2022-10-01T19:24:11.542Z,2.42
2022-10-01T19:26:53.727Z,1.75
2022-10-01T19:29:46.294Z,2.05
2022-10-01T19:35:00.027Z,2.53
2022-10-01T19:37:36.430Z,1.48
2022-10-01T19:40:13.904Z,2.08
2022-10-01T19:42:44.874Z,1.83
2022-10-01T19:45:35.133Z,2.15
2022-10-01T19:48:04.473Z,2.25
2022-10-01T19:50:34.164Z,2.85
2022-10-01T19:53:03.287Z,2.40
2022-10-01T19:55:38.434Z,3.50
2022-10-01T19:58:18.988Z,2.70
2022-10-01T20:00:51.214Z,2.45
2022-10-01T20:03:26.085Z,2.75
2022-10-01T20:06:00.465Z,2.30
2022-10-01T20:08:29.882Z,2.33
2022-10-01T20:11:11.027Z,2.53
2022-10-01T20:14:05.826Z,1.55
2022-10-01T20:16:51.474Z,1.90
2022-10-01T20:19:53.854Z,3.03
2022-10-01T20:22:32.013Z,2.65
2022-10-01T20:25:24.378Z,2.30
2022-10-01T20:28:00.919Z,2.45
2022-10-01T20:30:33.241Z,2.00
2022-10-01T20:33:27.576Z,2.28
2022-10-01T20:36:01.491Z,1.80
2022-10-01T20:38:34.905Z,1.98
2022-10-01T20:41:09.433Z,3.50
2022-10-01T20:43:51.836Z,1.80
2022-10-01T20:46:35.384Z,2.63
2022-10-01T20:49:06.628Z,2.63
2022-10-01T20:51:45.970Z,2.70
2022-10-01T20:54:22.592Z,2.10
2022-10-01T20:57:03.677Z,3.03
2022-10-01T20:59:36.673Z,3.05
2022-10-01T21:02:26.447Z,3.20
2022-10-01T21:05:06.391Z,2.15
2022-10-01T21:07:39.103Z,4.57
2022-10-01T21:10:36.051Z,2.42
2022-10-01T21:13:13.766Z,3.00
2022-10-01T21:16:09.575Z,2.10
2022-10-01T21:18:51.300Z,2.38
2022-10-01T21:21:43.550Z,2.53
2022-10-01T21:24:34.449Z,2.65
2022-10-01T21:27:20.948Z,2.15
2022-10-01T21:33:06.080Z,3.08
2022-10-01T21:35:51.802Z,3.00
2022-10-01T21:38:36.458Z,2.67
2022-10-01T21:41:05.784Z,2.63
2022-10-01T21:43:56.724Z,2.92
2022-10-01T21:46:40.099Z,3.80
2022-10-01T21:49:17.778Z,3.15
2022-10-01T21:52:03.827Z,2.72
2022-10-01T21:54:50.210Z,2.85
2022-10-01T21:57:28.488Z,3.00
2022-10-01T22:00:18.970Z,2.65
2022-10-01T22:03:00.299Z,3.50
2022-10-01T22:05:56.824Z,2.20
2022-10-01T22:08:29.176Z,2.55
2022-10-01T22:11:00.564Z,3.10
2022-10-01T22:13:34.406Z,3.25
2022-10-01T22:16:07.430Z,2.75
2022-10-01T22:18:39.786Z,2.00
2022-10-01T22:21:12.577Z,2.70
2022-10-01T22:23:50.865Z,1.75
2022-10-01T22:26:23.173Z,0.82
2022-10-01T22:28:55.806Z,0.65
2022-10-01T22:31:27.604Z,0.30
2022-10-01T22:34:09.392Z,0.45
2022-10-01T22:36:50.844Z,0.90
2022-10-01T22:39:26.271Z,0.57
2022-10-01T22:41:56.350Z,0.50
2022-10-01T22:44:23.527Z,0.60
2022-10-01T22:47:21.783Z,0.60
2022-10-01T22:50:16.208Z,0.90
2022-10-01T22:53:08.500Z,0.73
2022-10-01T22:55:53.812Z,1.42
2022-10-01T22:59:03.345Z,2.28
2022-10-01T23:02:10.033Z,2.50
2022-10-01T23:05:19.901Z,1.75
2022-10-01T23:07:52.946Z,2.38
2022-10-01T23:10:33.590Z,3.03
2022-10-01T23:13:34.014Z,3.22
2022-10-01T23:16:16.261Z,3.10
2022-10-01T23:19:15.021Z,2.63
2022-10-01T23:22:04.361Z,4.18
2022-10-01T23:24:39.012Z,3.88
2022-10-01T23:27:38.141Z,2.53
2022-10-01T23:30:14.210Z,4.78
2022-10-01T23:32:56.922Z,3.10
2022-10-01T23:35:46.738Z,3.95
2022-10-01T23:38:30.769Z,2.63
2022-10-01T23:41:09.218Z,2.80
2022-10-01T23:43:50.660Z,2.55
2022-10-01T23:46:27.255Z,2.65
2022-10-01T23:49:14.344Z,2.45
2022-10-01T23:51:59.092Z,2.40
2022-10-01T23:54:56.140Z,2.05
2022-10-01T23:57:28.296Z,1.80
